sensor_id;sensor_type;location;lat;lon;timestamp;pressure;altitude;pressure_sealevel;temperature;humidity
65131;BME280;51709;54.912;8.316;2023-04-24T00:00:40;99891.00;;;12.48;63.68
65131;BME280;51709;54.912;8.316;2023-04-24T00:06:01;99892.88;;;12.44;63.92
65131;BME280;51709;54.912;8.316;2023-04-24T00:11:22;99882.06;;;12.36;64.32
65131;BME280;51709;54.912;8.316;2023-04-24T00:16:43;99892.66;;;12.30;64.80
65131;BME280;51709;54.912;8.316;2023-04-24T00:22:04;99895.44;;;12.25;64.90
65131;BME280;51709;54.912;8.316;2023-04-24T00:27:24;99878.53;;;12.20;65.30
65131;BME280;51709;54.912;8.316;2023-04-24T00:32:46;99876.75;;;12.20;65.19
65131;BME280;51709;54.912;8.316;2023-04-24T00:38:07;99870.81;;;12.20;65.22
65131;BME280;51709;54.912;8.316;2023-04-24T00:43:27;99849.38;;;12.19;65.15
65131;BME280;51709;54.912;8.316;2023-04-24T00:48:48;99832.25;;;12.18;65.18
65131;BME280;51709;54.912;8.316;2023-04-24T00:54:13;99826.56;;;12.11;65.67
65131;BME280;51709;54.912;8.316;2023-04-24T00:59:34;99807.47;;;12.17;65.40
65131;BME280;51709;54.912;8.316;2023-04-24T01:04:55;99801.34;;;12.20;65.58
65131;BME280;51709;54.912;8.316;2023-04-24T01:10:17;99790.22;;;12.19;65.56
65131;BME280;51709;54.912;8.316;2023-04-24T01:15:39;99789.19;;;12.23;65.61
65131;BME280;51709;54.912;8.316;2023-04-24T01:21:03;99771.47;;;12.17;65.85
65131;BME280;51709;54.912;8.316;2023-04-24T01:26:24;99768.81;;;12.18;65.97
65131;BME280;51709;54.912;8.316;2023-04-24T01:31:46;99754.75;;;12.07;66.28
65131;BME280;51709;54.912;8.316;2023-04-24T01:37:07;99757.47;;;12.04;66.62
65131;BME280;51709;54.912;8.316;2023-04-24T01:42:29;99757.31;;;12.07;66.58
65131;BME280;51709;54.912;8.316;2023-04-24T01:47:50;99756.50;;;12.06;66.55
65131;BME280;51709;54.912;8.316;2023-04-24T01:53:11;99752.47;;;12.00;66.87
65131;BME280;51709;54.912;8.316;2023-04-24T01:58:32;99725.16;;;11.98;67.11
65131;BME280;51709;54.912;8.316;2023-04-24T02:03:53;99740.44;;;12.01;67.21
65131;BME280;51709;54.912;8.316;2023-04-24T02:09:14;99733.91;;;12.13;66.90
65131;BME280;51709;54.912;8.316;2023-04-24T02:14:34;99724.31;;;12.16;66.99
65131;BME280;51709;54.912;8.316;2023-04-24T02:19:56;99713.38;;;12.11;66.96
65131;BME280;51709;54.912;8.316;2023-04-24T02:25:17;99701.47;;;12.10;67.20
65131;BME280;51709;54.912;8.316;2023-04-24T02:30:39;99697.97;;;12.11;67.38
65131;BME280;51709;54.912;8.316;2023-04-24T02:36:00;99690.19;;;12.13;67.42
65131;BME280;51709;54.912;8.316;2023-04-24T02:41:20;99681.84;;;12.08;67.85
65131;BME280;51709;54.912;8.316;2023-04-24T02:46:41;99668.84;;;12.11;67.87
65131;BME280;51709;54.912;8.316;2023-04-24T02:52:03;99663.63;;;12.12;68.18
65131;BME280;51709;54.912;8.316;2023-04-24T02:57:23;99649.81;;;12.15;68.26
65131;BME280;51709;54.912;8.316;2023-04-24T03:02:44;99645.34;;;12.18;68.28
65131;BME280;51709;54.912;8.316;2023-04-24T03:08:04;99627.47;;;12.15;68.48
65131;BME280;51709;54.912;8.316;2023-04-24T03:13:26;99623.91;;;12.18;68.64
65131;BME280;51709;54.912;8.316;2023-04-24T03:18:47;99612.59;;;12.22;68.40
65131;BME280;51709;54.912;8.316;2023-04-24T03:24:08;99598.38;;;12.32;68.30
65131;BME280;51709;54.912;8.316;2023-04-24T03:29:30;99593.91;;;12.18;68.54
65131;BME280;51709;54.912;8.316;2023-04-24T03:34:51;99590.66;;;12.15;68.89
65131;BME280;51709;54.912;8.316;2023-04-24T03:40:14;99583.91;;;12.12;68.86
65131;BME280;51709;54.912;8.316;2023-04-24T03:45:34;99584.97;;;12.08;68.88
65131;BME280;51709;54.912;8.316;2023-04-24T03:50:55;99572.78;;;12.12;68.80
65131;BME280;51709;54.912;8.316;2023-04-24T03:56:16;99574.06;;;12.03;68.84
65131;BME280;51709;54.912;8.316;2023-04-24T04:01:37;99564.41;;;11.89;69.49
65131;BME280;51709;54.912;8.316;2023-04-24T04:07:06;99578.47;;;11.24;71.95
65131;BME280;51709;54.912;8.316;2023-04-24T04:12:28;99588.19;;;10.76;73.61
65131;BME280;51709;54.912;8.316;2023-04-24T04:17:48;99582.38;;;10.52;73.87
65131;BME280;51709;54.912;8.316;2023-04-24T04:23:09;99583.78;;;10.16;75.19
65131;BME280;51709;54.912;8.316;2023-04-24T04:28:41;99596.47;;;9.97;75.52
65131;BME280;51709;54.912;8.316;2023-04-24T04:34:01;99596.09;;;9.84;75.77
65131;BME280;51709;54.912;8.316;2023-04-24T04:39:24;99590.44;;;9.76;75.91
65131;BME280;51709;54.912;8.316;2023-04-24T04:44:51;99594.13;;;9.69;76.23
65131;BME280;51709;54.912;8.316;2023-04-24T04:50:17;99584.59;;;9.73;76.24
65131;BME280;51709;54.912;8.316;2023-04-24T04:55:42;99587.94;;;9.75;76.51
65131;BME280;51709;54.912;8.316;2023-04-24T05:01:13;99591.09;;;9.81;76.47
65131;BME280;51709;54.912;8.316;2023-04-24T05:06:38;99604.47;;;9.88;76.88
65131;BME280;51709;54.912;8.316;2023-04-24T05:11:59;99584.16;;;9.83;76.80
65131;BME280;51709;54.912;8.316;2023-04-24T05:17:23;99594.56;;;9.80;77.06
65131;BME280;51709;54.912;8.316;2023-04-24T05:22:47;99598.50;;;9.65;77.99
65131;BME280;51709;54.912;8.316;2023-04-24T05:28:09;99603.63;;;9.65;78.07
65131;BME280;51709;54.912;8.316;2023-04-24T05:33:31;99586.25;;;9.74;77.80
65131;BME280;51709;54.912;8.316;2023-04-24T05:38:52;99607.22;;;9.83;77.39
65131;BME280;51709;54.912;8.316;2023-04-24T05:44:13;99592.91;;;9.78;77.64
65131;BME280;51709;54.912;8.316;2023-04-24T05:49:35;99612.31;;;9.85;77.67
65131;BME280;51709;54.912;8.316;2023-04-24T05:54:56;99608.28;;;9.78;78.18
65131;BME280;51709;54.912;8.316;2023-04-24T06:00:21;99606.91;;;9.93;77.24
65131;BME280;51709;54.912;8.316;2023-04-24T06:05:51;99605.44;;;9.85;77.75
65131;BME280;51709;54.912;8.316;2023-04-24T06:11:14;99595.31;;;9.82;77.82
65131;BME280;51709;54.912;8.316;2023-04-24T06:16:36;99609.31;;;9.74;78.39
65131;BME280;51709;54.912;8.316;2023-04-24T06:22:05;99602.84;;;9.87;77.64
65131;BME280;51709;54.912;8.316;2023-04-24T06:27:27;99617.63;;;9.80;77.83
65131;BME280;51709;54.912;8.316;2023-04-24T06:32:48;99603.91;;;9.81;77.82
65131;BME280;51709;54.912;8.316;2023-04-24T06:38:09;99610.63;;;9.84;77.55
65131;BME280;51709;54.912;8.316;2023-04-24T06:43:30;99613.03;;;9.89;77.56
65131;BME280;51709;54.912;8.316;2023-04-24T06:48:54;99615.81;;;9.82;77.50
65131;BME280;51709;54.912;8.316;2023-04-24T06:54:15;99618.50;;;9.79;78.08
65131;BME280;51709;54.912;8.316;2023-04-24T06:59:37;99612.66;;;9.76;78.19
65131;BME280;51709;54.912;8.316;2023-04-24T07:04:57;99615.63;;;9.65;79.12
65131;BME280;51709;54.912;8.316;2023-04-24T07:10:18;99622.25;;;9.70;79.02
65131;BME280;51709;54.912;8.316;2023-04-24T07:15:40;99620.28;;;9.77;79.05
65131;BME280;51709;54.912;8.316;2023-04-24T07:21:02;99622.31;;;9.91;78.45
65131;BME280;51709;54.912;8.316;2023-04-24T07:26:22;99617.31;;;9.88;79.48
65131;BME280;51709;54.912;8.316;2023-04-24T07:31:43;99625.31;;;9.80;80.04
65131;BME280;51709;54.912;8.316;2023-04-24T07:37:04;99623.72;;;9.76;80.62
65131;BME280;51709;54.912;8.316;2023-04-24T07:42:25;99634.59;;;9.83;80.17
65131;BME280;51709;54.912;8.316;2023-04-24T07:47:46;99632.28;;;9.99;79.70
65131;BME280;51709;54.912;8.316;2023-04-24T07:53:06;99643.75;;;10.12;79.63
65131;BME280;51709;54.912;8.316;2023-04-24T07:58:27;99643.47;;;10.18;79.65
65131;BME280;51709;54.912;8.316;2023-04-24T08:03:48;99645.66;;;10.29;79.64
65131;BME280;51709;54.912;8.316;2023-04-24T08:09:09;99646.78;;;10.67;78.68
65131;BME280;51709;54.912;8.316;2023-04-24T08:14:30;99654.47;;;10.87;78.38
65131;BME280;51709;54.912;8.316;2023-04-24T08:19:50;99656.31;;;11.25;77.50
65131;BME280;51709;54.912;8.316;2023-04-24T08:25:13;99656.47;;;12.00;75.45
65131;BME280;51709;54.912;8.316;2023-04-24T08:30:33;99675.19;;;12.23;75.30
65131;BME280;51709;54.912;8.316;2023-04-24T08:35:54;99675.88;;;12.07;75.92
65131;BME280;51709;54.912;8.316;2023-04-24T08:41:15;99681.88;;;12.44;75.17
65131;BME280;51709;54.912;8.316;2023-04-24T08:46:37;99676.06;;;12.76;74.50
65131;BME280;51709;54.912;8.316;2023-04-24T08:51:58;99680.38;;;13.10;73.49
65131;BME280;51709;54.912;8.316;2023-04-24T08:57:21;99689.94;;;13.26;73.54
65131;BME280;51709;54.912;8.316;2023-04-24T09:02:42;99692.50;;;13.44;73.20
65131;BME280;51709;54.912;8.316;2023-04-24T09:08:04;99696.50;;;13.49;73.15
65131;BME280;51709;54.912;8.316;2023-04-24T09:13:26;99690.56;;;13.97;72.08
65131;BME280;51709;54.912;8.316;2023-04-24T09:18:47;99701.63;;;14.31;71.02
65131;BME280;51709;54.912;8.316;2023-04-24T09:24:14;99695.72;;;14.13;71.60
65131;BME280;51709;54.912;8.316;2023-04-24T09:29:38;99702.66;;;13.96;72.18
65131;BME280;51709;54.912;8.316;2023-04-24T09:35:12;99705.34;;;13.61;73.16
65131;BME280;51709;54.912;8.316;2023-04-24T09:40:34;99715.78;;;13.07;74.41
65131;BME280;51709;54.912;8.316;2023-04-24T09:45:57;99723.28;;;13.12;74.20
65131;BME280;51709;54.912;8.316;2023-04-24T09:51:33;99729.94;;;12.98;74.17
65131;BME280;51709;54.912;8.316;2023-04-24T09:56:54;99727.13;;;13.20;73.22
65131;BME280;51709;54.912;8.316;2023-04-24T10:02:19;99730.31;;;13.43;72.13
65131;BME280;51709;54.912;8.316;2023-04-24T10:07:40;99738.34;;;13.54;71.80
65131;BME280;51709;54.912;8.316;2023-04-24T10:13:01;99738.78;;;13.63;71.53
65131;BME280;51709;54.912;8.316;2023-04-24T10:18:22;99741.97;;;13.15;72.44
65131;BME280;51709;54.912;8.316;2023-04-24T10:23:44;99750.69;;;12.58;73.85
65131;BME280;51709;54.912;8.316;2023-04-24T10:29:07;99751.34;;;12.44;74.03
65131;BME280;51709;54.912;8.316;2023-04-24T10:34:32;99754.53;;;12.49;73.73
65131;BME280;51709;54.912;8.316;2023-04-24T10:39:53;99755.84;;;12.01;74.25
65131;BME280;51709;54.912;8.316;2023-04-24T10:45:19;99762.28;;;11.91;74.24
65131;BME280;51709;54.912;8.316;2023-04-24T10:56:06;99760.00;;;12.61;71.91
65131;BME280;51709;54.912;8.316;2023-04-24T11:01:31;99763.78;;;12.54;71.99
65131;BME280;51709;54.912;8.316;2023-04-24T11:06:53;99784.47;;;12.52;72.06
65131;BME280;51709;54.912;8.316;2023-04-24T11:12:14;99790.91;;;13.85;68.96
65131;BME280;51709;54.912;8.316;2023-04-24T11:17:36;99784.81;;;14.84;65.74
65131;BME280;51709;54.912;8.316;2023-04-24T11:23:04;99787.41;;;14.52;67.04
65131;BME280;51709;54.912;8.316;2023-04-24T11:28:25;99793.16;;;18.97;57.41
65131;BME280;51709;54.912;8.316;2023-04-24T11:33:46;99799.41;;;24.00;44.34
65131;BME280;51709;54.912;8.316;2023-04-24T11:39:07;99806.59;;;25.34;42.12
65131;BME280;51709;54.912;8.316;2023-04-24T11:44:29;99795.28;;;19.03;56.24
65131;BME280;51709;54.912;8.316;2023-04-24T11:49:50;99808.66;;;16.52;62.40
65131;BME280;51709;54.912;8.316;2023-04-24T12:00:35;99816.81;;;14.82;64.47
65131;BME280;51709;54.912;8.316;2023-04-24T12:06:07;99812.94;;;13.58;67.00
65131;BME280;51709;54.912;8.316;2023-04-24T12:11:28;99829.50;;;12.42;69.11
65131;BME280;51709;54.912;8.316;2023-04-24T12:16:50;99819.13;;;12.05;69.53
65131;BME280;51709;54.912;8.316;2023-04-24T12:22:11;99818.16;;;11.66;69.94
65131;BME280;51709;54.912;8.316;2023-04-24T12:27:32;99822.03;;;11.56;70.00
65131;BME280;51709;54.912;8.316;2023-04-24T12:32:57;99820.47;;;11.72;69.44
65131;BME280;51709;54.912;8.316;2023-04-24T12:38:23;99825.38;;;11.58;69.65
65131;BME280;51709;54.912;8.316;2023-04-24T12:43:52;99827.50;;;11.26;70.47
65131;BME280;51709;54.912;8.316;2023-04-24T12:49:13;99841.25;;;11.25;70.45
65131;BME280;51709;54.912;8.316;2023-04-24T12:54:33;99833.31;;;11.09;70.77
65131;BME280;51709;54.912;8.316;2023-04-24T12:59:55;99843.16;;;10.98;70.90
65131;BME280;51709;54.912;8.316;2023-04-24T13:05:16;99840.25;;;11.07;70.53
65131;BME280;51709;54.912;8.316;2023-04-24T13:10:38;99844.97;;;11.18;70.38
65131;BME280;51709;54.912;8.316;2023-04-24T13:15:59;99853.06;;;11.29;70.34
65131;BME280;51709;54.912;8.316;2023-04-24T13:21:20;99825.00;;;11.24;70.84
65131;BME280;51709;54.912;8.316;2023-04-24T13:26:41;99848.59;;;11.12;71.10
65131;BME280;51709;54.912;8.316;2023-04-24T13:32:02;99839.88;;;10.72;72.15
65131;BME280;51709;54.912;8.316;2023-04-24T13:37:23;99836.31;;;10.52;72.69
65131;BME280;51709;54.912;8.316;2023-04-24T13:42:44;99840.84;;;10.45;72.41
65131;BME280;51709;54.912;8.316;2023-04-24T13:48:04;99853.28;;;10.31;72.64
65131;BME280;51709;54.912;8.316;2023-04-24T13:53:25;99853.00;;;10.15;73.27
65131;BME280;51709;54.912;8.316;2023-04-24T13:58:46;99850.31;;;9.94;73.94
65131;BME280;51709;54.912;8.316;2023-04-24T14:04:06;99848.84;;;9.87;73.85
65131;BME280;51709;54.912;8.316;2023-04-24T14:09:27;99841.09;;;9.63;74.98
65131;BME280;51709;54.912;8.316;2023-04-24T14:14:48;99841.38;;;9.54;75.09
65131;BME280;51709;54.912;8.316;2023-04-24T14:20:08;99852.50;;;9.53;74.72
65131;BME280;51709;54.912;8.316;2023-04-24T14:25:29;99850.25;;;9.44;75.55
65131;BME280;51709;54.912;8.316;2023-04-24T14:30:50;99840.56;;;9.53;75.16
65131;BME280;51709;54.912;8.316;2023-04-24T14:36:11;99851.47;;;9.59;75.15
65131;BME280;51709;54.912;8.316;2023-04-24T14:41:32;99835.38;;;9.55;75.81
65131;BME280;51709;54.912;8.316;2023-04-24T14:46:56;99839.34;;;9.38;76.51
65131;BME280;51709;54.912;8.316;2023-04-24T14:52:17;99849.28;;;9.21;77.85
65131;BME280;51709;54.912;8.316;2023-04-24T14:57:38;99850.00;;;9.24;77.68
65131;BME280;51709;54.912;8.316;2023-04-24T15:03:00;99847.34;;;9.28;77.42
65131;BME280;51709;54.912;8.316;2023-04-24T15:08:21;99844.63;;;9.34;77.15
65131;BME280;51709;54.912;8.316;2023-04-24T15:13:42;99864.41;;;9.29;77.64
65131;BME280;51709;54.912;8.316;2023-04-24T15:19:02;99871.25;;;9.28;77.53
65131;BME280;51709;54.912;8.316;2023-04-24T15:24:23;99867.75;;;9.31;77.53
65131;BME280;51709;54.912;8.316;2023-04-24T15:29:44;99885.75;;;9.28;77.87
65131;BME280;51709;54.912;8.316;2023-04-24T15:35:06;99873.75;;;9.30;77.98
65131;BME280;51709;54.912;8.316;2023-04-24T15:40:30;99876.38;;;9.28;78.21
65131;BME280;51709;54.912;8.316;2023-04-24T15:45:51;99877.44;;;9.21;78.65
65131;BME280;51709;54.912;8.316;2023-04-24T15:51:11;99879.03;;;9.25;78.46
65131;BME280;51709;54.912;8.316;2023-04-24T15:56:32;99890.16;;;9.24;78.46
65131;BME280;51709;54.912;8.316;2023-04-24T16:01:52;99909.00;;;9.21;78.48
65131;BME280;51709;54.912;8.316;2023-04-24T16:07:16;99904.50;;;9.00;79.38
65131;BME280;51709;54.912;8.316;2023-04-24T16:12:39;99911.00;;;9.12;78.78
65131;BME280;51709;54.912;8.316;2023-04-24T16:18:00;99913.63;;;9.10;78.88
65131;BME280;51709;54.912;8.316;2023-04-24T16:23:21;99927.97;;;9.14;78.91
65131;BME280;51709;54.912;8.316;2023-04-24T16:28:42;99926.34;;;9.12;78.79
65131;BME280;51709;54.912;8.316;2023-04-24T16:34:02;99931.53;;;9.10;78.90
65131;BME280;51709;54.912;8.316;2023-04-24T16:39:22;99939.94;;;9.14;78.84
65131;BME280;51709;54.912;8.316;2023-04-24T16:44:43;99945.00;;;9.15;79.18
65131;BME280;51709;54.912;8.316;2023-04-24T16:50:04;99951.69;;;9.21;78.71
65131;BME280;51709;54.912;8.316;2023-04-24T16:55:26;99963.66;;;9.20;78.61
65131;BME280;51709;54.912;8.316;2023-04-24T17:00:47;99965.47;;;9.17;78.99
65131;BME280;51709;54.912;8.316;2023-04-24T17:06:08;99967.38;;;9.08;79.17
65131;BME280;51709;54.912;8.316;2023-04-24T17:11:28;99979.72;;;8.96;79.62
65131;BME280;51709;54.912;8.316;2023-04-24T17:16:50;99981.41;;;8.95;79.40
65131;BME280;51709;54.912;8.316;2023-04-24T17:22:11;99979.00;;;8.90;79.41
65131;BME280;51709;54.912;8.316;2023-04-24T17:27:32;99997.28;;;8.76;80.07
65131;BME280;51709;54.912;8.316;2023-04-24T17:32:53;100005.91;;;8.72;80.06
65131;BME280;51709;54.912;8.316;2023-04-24T17:38:13;100005.13;;;8.70;80.04
65131;BME280;51709;54.912;8.316;2023-04-24T17:43:34;100020.56;;;8.67;80.09
65131;BME280;51709;54.912;8.316;2023-04-24T17:48:55;100015.41;;;8.69;80.01
65131;BME280;51709;54.912;8.316;2023-04-24T17:54:15;100026.50;;;8.68;80.12
65131;BME280;51709;54.912;8.316;2023-04-24T17:59:37;100026.88;;;8.54;80.44
65131;BME280;51709;54.912;8.316;2023-04-24T18:04:57;100036.78;;;8.66;80.19
65131;BME280;51709;54.912;8.316;2023-04-24T18:10:18;100032.69;;;8.59;80.44
65131;BME280;51709;54.912;8.316;2023-04-24T18:15:39;100051.41;;;8.61;80.15
65131;BME280;51709;54.912;8.316;2023-04-24T18:21:03;100069.47;;;8.55;80.47
65131;BME280;51709;54.912;8.316;2023-04-24T18:26:25;100073.94;;;8.45;80.64
65131;BME280;51709;54.912;8.316;2023-04-24T18:31:46;100070.75;;;8.37;80.51
65131;BME280;51709;54.912;8.316;2023-04-24T18:37:07;100080.97;;;8.35;80.47
65131;BME280;51709;54.912;8.316;2023-04-24T18:42:29;100097.34;;;8.28;80.36
65131;BME280;51709;54.912;8.316;2023-04-24T18:47:50;100089.03;;;8.20;80.54
65131;BME280;51709;54.912;8.316;2023-04-24T18:53:11;100108.03;;;8.08;80.72
65131;BME280;51709;54.912;8.316;2023-04-24T18:58:34;100121.66;;;8.08;80.59
65131;BME280;51709;54.912;8.316;2023-04-24T19:03:55;100117.50;;;8.04;80.72
65131;BME280;51709;54.912;8.316;2023-04-24T19:09:16;100134.19;;;8.19;79.96
65131;BME280;51709;54.912;8.316;2023-04-24T19:14:36;100134.16;;;8.21;79.65
65131;BME280;51709;54.912;8.316;2023-04-24T19:19:57;100143.53;;;8.22;79.66
65131;BME280;51709;54.912;8.316;2023-04-24T19:25:18;100157.47;;;8.07;80.24
65131;BME280;51709;54.912;8.316;2023-04-24T19:30:41;100154.13;;;8.03;80.18
65131;BME280;51709;54.912;8.316;2023-04-24T19:36:02;100162.56;;;8.08;79.53
65131;BME280;51709;54.912;8.316;2023-04-24T19:41:22;100187.25;;;8.08;79.30
65131;BME280;51709;54.912;8.316;2023-04-24T19:46:43;100181.34;;;8.06;79.15
65131;BME280;51709;54.912;8.316;2023-04-24T19:52:04;100192.41;;;8.06;78.70
65131;BME280;51709;54.912;8.316;2023-04-24T19:57:25;100200.28;;;7.95;78.62
65131;BME280;51709;54.912;8.316;2023-04-24T20:02:45;100197.63;;;8.01;78.17
65131;BME280;51709;54.912;8.316;2023-04-24T20:08:06;100200.47;;;7.88;78.28
65131;BME280;51709;54.912;8.316;2023-04-24T20:13:26;100204.50;;;7.98;77.49
65131;BME280;51709;54.912;8.316;2023-04-24T20:18:48;100195.25;;;7.92;77.00
65131;BME280;51709;54.912;8.316;2023-04-24T20:24:09;100210.94;;;7.75;77.04
65131;BME280;51709;54.912;8.316;2023-04-24T20:29:30;100214.28;;;7.77;76.42
65131;BME280;51709;54.912;8.316;2023-04-24T20:34:51;100221.94;;;7.77;76.14
65131;BME280;51709;54.912;8.316;2023-04-24T20:40:13;100229.72;;;7.71;75.88
65131;BME280;51709;54.912;8.316;2023-04-24T20:45:34;100201.53;;;7.76;75.55
65131;BME280;51709;54.912;8.316;2023-04-24T20:50:55;100221.09;;;7.77;75.33
65131;BME280;51709;54.912;8.316;2023-04-24T20:56:16;100208.28;;;7.78;75.00
65131;BME280;51709;54.912;8.316;2023-04-24T21:01:37;100217.00;;;7.69;74.75
65131;BME280;51709;54.912;8.316;2023-04-24T21:06:58;100217.88;;;7.67;74.34
65131;BME280;51709;54.912;8.316;2023-04-24T21:12:18;100227.38;;;7.60;73.85
65131;BME280;51709;54.912;8.316;2023-04-24T21:17:39;100237.78;;;7.48;73.74
65131;BME280;51709;54.912;8.316;2023-04-24T21:23:00;100240.34;;;7.48;73.13
65131;BME280;51709;54.912;8.316;2023-04-24T21:28:20;100231.00;;;7.48;72.51
65131;BME280;51709;54.912;8.316;2023-04-24T21:33:44;100250.56;;;7.48;72.32
65131;BME280;51709;54.912;8.316;2023-04-24T21:39:04;100251.59;;;7.39;72.58
65131;BME280;51709;54.912;8.316;2023-04-24T21:44:25;100229.56;;;7.33;72.41
65131;BME280;51709;54.912;8.316;2023-04-24T21:49:46;100239.81;;;7.30;72.45
65131;BME280;51709;54.912;8.316;2023-04-24T21:55:07;100253.53;;;7.24;72.36
65131;BME280;51709;54.912;8.316;2023-04-24T22:00:28;100268.06;;;7.21;72.47
65131;BME280;51709;54.912;8.316;2023-04-24T22:05:48;100251.03;;;7.21;72.34
65131;BME280;51709;54.912;8.316;2023-04-24T22:11:10;100241.16;;;7.00;73.25
65131;BME280;51709;54.912;8.316;2023-04-24T22:16:46;100243.72;;;7.00;72.94
65131;BME280;51709;54.912;8.316;2023-04-24T22:22:06;100272.03;;;6.83;73.56
65131;BME280;51709;54.912;8.316;2023-04-24T22:27:27;100273.66;;;6.88;73.12
65131;BME280;51709;54.912;8.316;2023-04-24T22:32:48;100275.50;;;6.80;73.26
65131;BME280;51709;54.912;8.316;2023-04-24T22:38:09;100270.47;;;6.74;73.26
65131;BME280;51709;54.912;8.316;2023-04-24T22:43:30;100296.09;;;6.65;73.32
65131;BME280;51709;54.912;8.316;2023-04-24T22:48:51;100296.09;;;6.65;72.95
65131;BME280;51709;54.912;8.316;2023-04-24T22:54:12;100303.25;;;6.36;74.17
65131;BME280;51709;54.912;8.316;2023-04-24T22:59:33;100299.84;;;6.37;73.75
65131;BME280;51709;54.912;8.316;2023-04-24T23:04:53;100298.03;;;6.45;73.30
65131;BME280;51709;54.912;8.316;2023-04-24T23:10:14;100300.69;;;6.39;73.09
65131;BME280;51709;54.912;8.316;2023-04-24T23:15:35;100311.69;;;6.40;73.18
65131;BME280;51709;54.912;8.316;2023-04-24T23:20:56;100307.50;;;6.36;73.08
65131;BME280;51709;54.912;8.316;2023-04-24T23:26:17;100320.16;;;6.45;72.71
65131;BME280;51709;54.912;8.316;2023-04-24T23:31:38;100304.00;;;6.46;72.26
65131;BME280;51709;54.912;8.316;2023-04-24T23:36:59;100314.22;;;6.41;72.29
65131;BME280;51709;54.912;8.316;2023-04-24T23:42:20;100313.38;;;6.44;71.72
65131;BME280;51709;54.912;8.316;2023-04-24T23:47:41;100322.66;;;6.46;71.13
65131;BME280;51709;54.912;8.316;2023-04-24T23:53:03;100297.13;;;6.51;70.35
65131;BME280;51709;54.912;8.316;2023-04-24T23:58:23;100305.63;;;6.50;69.94
